Time;durP1;ratioP1;P1;durP2;ratioP2;P2;SDS_P1;SDS_P2;PMS_P1;PMS_P2;Temp;Humidity;BMP_temperature;BMP_pressure;BME280_temperature;BME280_humidity;BME280_pressure;Samples;Min_cycle;Max_cycle;Signal;HPM_P1;HPM_P2
2022/07/28 00:00:19;;;;;;;;;;;;;;;26.32;36.92;99411.22;2063563;28;20443;-63
2022/07/28 00:01:19;;;;;;;;;;;;;;;26.33;36.88;99410.16;2062393;28;19955;-63
2022/07/28 00:02:19;;;;;;;;;;;;;;;26.32;36.75;99408.47;2065184;28;19951;-63
2022/07/28 00:03:20;;;;;;;;;;;;;;;26.33;36.69;99410.16;2065630;28;19952;-63
2022/07/28 00:04:20;;;;;;;;;;;;;;;26.33;36.80;99410.16;2066452;28;19998;-63
2022/07/28 00:05:21;;;;;;;;;;;;;;;26.32;36.92;99408.47;2065262;28;19910;-63
2022/07/28 00:06:21;;;;;;;;;;;;;;;26.32;36.96;99402.94;2067748;28;19916;-63
2022/07/28 00:07:21;;;;;;;;;;;;;;;26.31;36.96;99406.75;2061298;28;19917;-63
2022/07/28 00:08:21;;;;;;;;;;;;;;;26.32;36.73;99404.84;2067756;28;19970;-63
2022/07/28 00:09:22;;;;;;;;;;;;;;;26.30;36.94;99405.91;2063217;28;20820;-63
2022/07/28 00:10:22;;;;;;;;;;;;;;;26.30;36.84;99405.06;2066234;28;20000;-63
2022/07/28 00:11:22;;;;;;;;;;;;;;;26.30;37.01;99402.31;2065680;28;19925;-64
2022/07/28 00:12:23;;;;;;;;;;;;;;;26.29;36.79;99398.69;2067083;28;20231;-64
2022/07/28 00:13:23;;;;;;;;;;;;;;;26.30;36.99;99405.06;2067878;28;19917;-63
2022/07/28 00:14:24;;;;;;;;;;;;;;;26.30;37.06;99399.53;2063623;28;19963;-63
2022/07/28 00:15:25;;;;;;;;;;;;;;;26.30;36.98;99397.63;2067557;28;19935;-63
2022/07/28 00:16:25;;;;;;;;;;;;;;;26.29;36.80;99403.38;2066709;28;19921;-63
2022/07/28 00:17:25;;;;;;;;;;;;;;;26.31;36.88;99401.22;2066820;28;19932;-63
2022/07/28 00:18:26;;;;;;;;;;;;;;;26.31;36.98;99406.75;2070394;28;19924;-63
2022/07/28 00:19:26;;;;;;;;;;;;;;;26.29;36.88;99395.94;2066618;28;19918;-63
2022/07/28 00:20:29;;;;;;;;;;;;;;;26.29;36.71;99395.94;2067814;28;19948;-63
2022/07/28 00:21:29;;;;;;;;;;;;;;;26.30;36.79;99399.53;2068332;28;20003;-64
2022/07/28 00:22:30;;;;;;;;;;;;;;;26.29;36.96;99392.31;2066719;28;19971;-63
2022/07/28 00:23:30;;;;;;;;;;;;;;;26.29;36.97;99387.66;2070781;28;19929;-63
2022/07/28 00:24:30;;;;;;;;;;;;;;;26.29;36.96;99392.31;2062725;28;19928;-63
2022/07/28 00:25:30;;;;;;;;;;;;;;;26.29;36.87;99387.66;2064044;28;20394;-63
2022/07/28 00:26:31;;;;;;;;;;;;;;;26.28;36.99;99385.94;2068505;28;19922;-63
2022/07/28 00:27:31;;;;;;;;;;;;;;;26.30;36.80;99382.97;2066350;28;19956;-63
2022/07/28 00:28:32;;;;;;;;;;;;;;;26.28;36.91;99388.69;2062724;28;19933;-63
2022/07/28 00:29:32;;;;;;;;;;;;;;;26.28;36.75;99385.09;2064534;28;19917;-63
2022/07/28 00:30:32;;;;;;;;;;;;;;;26.30;36.87;99391.25;2069414;28;20368;-64
2022/07/28 00:31:33;;;;;;;;;;;;;;;26.29;36.75;99386.81;2066329;28;19943;-63
2022/07/28 00:32:33;;;;;;;;;;;;;;;26.29;36.77;99392.31;2067595;28;19924;-63
2022/07/28 00:33:33;;;;;;;;;;;;;;;26.28;36.83;99385.94;2067684;28;20169;-63
2022/07/28 00:34:34;;;;;;;;;;;;;;;26.30;36.97;99394.00;2067439;28;20360;-63
2022/07/28 00:35:34;;;;;;;;;;;;;;;26.28;36.98;99390.59;2069986;28;20304;-63
2022/07/28 00:36:34;;;;;;;;;;;;;;;26.29;36.91;99393.16;2067959;28;19999;-63
2022/07/28 00:37:35;;;;;;;;;;;;;;;26.29;36.96;99392.31;2070096;28;19974;-63
2022/07/28 00:38:36;;;;;;;;;;;;;;;26.29;36.82;99395.09;2062974;28;20746;-63
2022/07/28 00:39:36;;;;;;;;;;;;;;;26.28;37.10;99387.84;2067756;28;20004;-63
2022/07/28 00:41:55;;;;;;;;;;;;;;;26.28;37.11;99390.59;2068422;28;19924;-63
2022/07/28 00:42:56;;;;;;;;;;;;;;;26.26;37.15;99382.56;2067767;28;19960;-64
2022/07/28 00:43:56;;;;;;;;;;;;;;;26.26;37.03;99384.44;2069699;28;20386;-63
2022/07/28 00:44:57;;;;;;;;;;;;;;;26.25;36.91;99380.00;2067420;28;19923;-64
2022/07/28 00:45:57;;;;;;;;;;;;;;;26.26;36.93;99387.22;2069483;28;19953;-63
2022/07/28 00:46:57;;;;;;;;;;;;;;;26.25;37.08;99382.75;2065807;28;19951;-63
2022/07/28 00:47:58;;;;;;;;;;;;;;;26.26;36.92;99389.97;2069088;28;19917;-64
2022/07/28 00:48:58;;;;;;;;;;;;;;;26.26;37.07;99399.13;2069138;28;19917;-63
2022/07/28 00:49:58;;;;;;;;;;;;;;;26.25;37.05;99383.59;2068082;28;19967;-64
2022/07/28 00:50:58;;;;;;;;;;;;;;;26.26;36.96;99387.22;2069417;28;20490;-63
2022/07/28 00:51:59;;;;;;;;;;;;;;;26.25;37.12;99391.88;2068529;28;19917;-63
2022/07/28 00:53:00;;;;;;;;;;;;;;;26.26;36.86;99384.44;2067394;28;20364;-63
2022/07/28 00:54:00;;;;;;;;;;;;;;;26.25;37.09;99391.03;2062316;28;19924;-63
2022/07/28 00:55:02;;;;;;;;;;;;;;;26.26;37.20;99393.59;2068817;28;19917;-63
2022/07/28 00:56:02;;;;;;;;;;;;;;;26.25;36.87;99386.38;2068281;28;19917;-63
2022/07/28 00:57:03;;;;;;;;;;;;;;;26.26;37.19;99388.09;2063394;28;19924;-63
2022/07/28 00:58:04;;;;;;;;;;;;;;;26.26;37.12;99388.09;2065199;28;20509;-63
2022/07/28 00:59:04;;;;;;;;;;;;;;;26.25;37.15;99391.03;2066373;28;20785;-64
2022/07/28 01:00:05;;;;;;;;;;;;;;;26.26;36.92;99392.72;2068606;28;20022;-63
2022/07/28 01:01:06;;;;;;;;;;;;;;;26.26;37.20;99387.22;2069612;28;19920;-63
2022/07/28 01:02:06;;;;;;;;;;;;;;;26.26;37.09;99387.22;2062877;28;20828;-63
2022/07/28 01:03:07;;;;;;;;;;;;;;;26.26;37.13;99387.22;2069615;28;20317;-63
2022/07/28 01:04:07;;;;;;;;;;;;;;;26.26;37.28;99392.72;2077591;28;19924;-64
2022/07/28 01:05:08;;;;;;;;;;;;;;;26.26;37.21;99389.97;2075923;28;19917;-63
2022/07/28 01:06:26;;;;;;;;;;;;;;;26.25;37.26;99383.59;2072871;28;19924;-64
2022/07/28 01:07:41;;;;;;;;;;;;;;;26.25;36.99;99382.75;2076679;28;19921;-64
2022/07/28 01:08:41;;;;;;;;;;;;;;;26.25;37.14;99382.75;2060897;28;20257;-64
2022/07/28 01:09:57;;;;;;;;;;;;;;;26.25;37.03;99382.75;2067417;28;19915;-63
2022/07/28 01:11:19;;;;;;;;;;;;;;;26.25;37.00;99386.38;2072328;28;19931;-63
2022/07/28 01:12:19;;;;;;;;;;;;;;;26.25;37.09;99385.53;2068528;28;19921;-63
2022/07/28 01:13:29;;;;;;;;;;;;;;;26.25;37.06;99382.75;2064204;28;20032;-64
2022/07/28 01:14:49;;;;;;;;;;;;;;;26.24;36.91;99381.06;2066930;28;19916;-63
2022/07/28 01:15:54;;;;;;;;;;;;;;;26.24;37.07;99386.59;2071261;28;20296;-63
2022/07/28 01:17:00;;;;;;;;;;;;;;;26.25;37.15;99391.03;2067257;28;19967;-63
2022/07/28 01:18:20;;;;;;;;;;;;;;;26.23;36.94;99384.88;2067880;28;19921;-64
2022/07/28 01:19:26;;;;;;;;;;;;;;;26.23;36.87;99382.13;2069715;28;19921;-63
2022/07/28 01:20:36;;;;;;;;;;;;;;;26.23;37.16;99382.13;2069321;28;19961;-63
2022/07/28 01:21:38;;;;;;;;;;;;;;;26.22;36.95;99389.56;2066987;28;20976;-63
2022/07/28 01:22:40;;;;;;;;;;;;;;;26.21;37.10;99379.59;2068165;28;20454;-63
2022/07/28 01:23:40;;;;;;;;;;;;;;;26.21;37.02;99389.75;2068140;28;20665;-63
2022/07/28 01:24:58;;;;;;;;;;;;;;;26.21;37.29;99389.75;2067695;28;20596;-64
2022/07/28 01:26:05;;;;;;;;;;;;;;;26.20;37.09;99390.84;2069078;28;21621;-63
2022/07/28 01:27:13;;;;;;;;;;;;;;;26.21;37.38;99387.88;2067469;28;20406;-63
2022/07/28 01:28:31;;;;;;;;;;;;;;;26.21;37.13;99395.28;2068838;28;19917;-63
2022/07/28 01:29:47;;;;;;;;;;;;;;;26.21;37.23;99395.28;2071975;28;19967;-63
2022/07/28 01:30:52;;;;;;;;;;;;;;;26.21;37.24;99398.06;2065448;28;20004;-63
2022/07/28 01:32:00;;;;;;;;;;;;;;;26.21;37.46;99395.28;2067329;28;20273;-63
2022/07/28 01:33:03;;;;;;;;;;;;;;;26.21;37.21;99400.81;2066777;28;19928;-64
2022/07/28 01:34:12;;;;;;;;;;;;;;;26.21;37.42;99406.34;2066003;28;19945;-63
2022/07/28 01:35:18;;;;;;;;;;;;;;;26.21;37.31;99395.28;2064776;28;19944;-63
2022/07/28 01:36:21;;;;;;;;;;;;;;;26.20;37.51;99393.59;2070201;28;20627;-63
2022/07/28 01:37:26;;;;;;;;;;;;;;;26.20;37.49;99399.13;2070365;28;19913;-64
2022/07/28 01:38:28;;;;;;;;;;;;;;;26.19;37.30;99397.41;2063945;28;20463;-63
2022/07/28 01:39:31;;;;;;;;;;;;;;;26.21;37.31;99400.81;2067321;28;19925;-63
2022/07/28 01:40:33;;;;;;;;;;;;;;;26.20;37.31;99399.13;2064316;28;19924;-63
2022/07/28 01:41:35;;;;;;;;;;;;;;;26.19;37.52;99397.41;2068269;28;19975;-63
2022/07/28 01:42:40;;;;;;;;;;;;;;;26.20;37.51;99390.84;2065956;28;19928;-63
2022/07/28 01:43:43;;;;;;;;;;;;;;;26.19;37.51;99392.75;2067362;28;19917;-63
2022/07/28 01:44:45;;;;;;;;;;;;;;;26.19;37.50;99400.16;2069383;28;20666;-63
2022/07/28 01:45:46;;;;;;;;;;;;;;;26.18;37.56;99399.31;2068686;28;20269;-64
2022/07/28 01:46:47;;;;;;;;;;;;;;;26.20;37.60;99404.66;2064381;28;20015;-64
2022/07/28 01:47:48;;;;;;;;;;;;;;;26.19;37.37;99400.16;2071701;28;19962;-63
2022/07/28 01:48:49;;;;;;;;;;;;;;;26.18;37.33;99398.47;2066633;28;19960;-63
2022/07/28 01:49:51;;;;;;;;;;;;;;;26.16;37.63;99395.06;2072979;28;19921;-64
2022/07/28 01:50:53;;;;;;;;;;;;;;;26.17;37.27;99394.88;2070359;28;19917;-63
2022/07/28 01:51:55;;;;;;;;;;;;;;;26.18;37.58;99392.97;2066293;28;19913;-64
2022/07/28 01:52:55;;;;;;;;;;;;;;;26.16;37.32;99395.91;2072865;28;20816;-64
2022/07/28 01:53:58;;;;;;;;;;;;;;;26.16;37.49;99393.16;2064670;28;19984;-63
2022/07/28 01:54:59;;;;;;;;;;;;;;;26.16;37.31;99386.78;2064863;28;19957;-63
2022/07/28 01:56:00;;;;;;;;;;;;;;;26.16;37.28;99386.78;2066257;28;19952;-63
2022/07/28 01:57:01;;;;;;;;;;;;;;;26.15;37.36;99382.34;2069690;28;19909;-64
2022/07/28 01:58:03;;;;;;;;;;;;;;;26.15;37.23;99388.72;2067905;28;20036;-63
2022/07/28 01:59:05;;;;;;;;;;;;;;;26.16;37.30;99395.06;2069102;28;19917;-64
2022/07/28 02:00:06;;;;;;;;;;;;;;;26.14;37.25;99383.38;2068933;28;19917;-63
2022/07/28 02:01:08;;;;;;;;;;;;;;;26.15;37.55;99379.59;2068936;28;20029;-64
2022/07/28 02:02:10;;;;;;;;;;;;;;;26.13;37.63;99392.75;2069131;28;20408;-63
2022/07/28 02:03:11;;;;;;;;;;;;;;;26.15;37.56;99393.41;2061835;28;20514;-63
2022/07/28 02:04:14;;;;;;;;;;;;;;;26.14;37.57;99386.16;2066236;28;20059;-64
2022/07/28 02:05:15;;;;;;;;;;;;;;;26.14;37.41;99388.91;2069002;28;19967;-63
2022/07/28 02:06:17;;;;;;;;;;;;;;;26.15;37.52;99387.88;2063740;28;20403;-63
2022/07/28 02:07:19;;;;;;;;;;;;;;;26.13;37.57;99388.06;2061146;28;20411;-63
2022/07/28 02:08:21;;;;;;;;;;;;;;;26.14;37.43;99388.91;2067929;28;19909;-63
2022/07/28 02:09:22;;;;;;;;;;;;;;;26.14;37.58;99388.91;2067523;28;19936;-63
2022/07/28 02:10:24;;;;;;;;;;;;;;;26.13;37.37;99382.56;2068786;28;20075;-63
2022/07/28 02:11:41;;;;;;;;;;;;;;;26.15;37.35;99387.88;2066622;28;19925;-63
2022/07/28 02:12:43;;;;;;;;;;;;;;;26.15;37.29;99393.41;2066935;28;20035;-63
2022/07/28 02:13:45;;;;;;;;;;;;;;;26.15;37.31;99391.47;2068848;28;20339;-64
2022/07/28 02:14:47;;;;;;;;;;;;;;;26.14;37.31;99394.44;2067555;28;19917;-63
2022/07/28 02:15:47;;;;;;;;;;;;;;;26.15;37.55;99396.16;2070190;28;20011;-63
2022/07/28 02:16:50;;;;;;;;;;;;;;;26.15;37.54;99385.09;2067823;28;19909;-63
2022/07/28 02:17:51;;;;;;;;;;;;;;;26.15;37.28;99382.34;2069187;28;19928;-63
2022/07/28 02:18:54;;;;;;;;;;;;;;;26.14;37.60;99386.16;2068425;28;19917;-63
2022/07/28 02:19:54;;;;;;;;;;;;;;;26.15;37.38;99385.09;2064818;28;19921;-63
2022/07/28 02:20:55;;;;;;;;;;;;;;;26.14;37.35;99377.88;2068750;28;19924;-63
2022/07/28 02:21:55;;;;;;;;;;;;;;;26.14;37.53;99383.38;2061575;28;19936;-63
2022/07/28 02:22:56;;;;;;;;;;;;;;;26.14;37.40;99375.09;2066095;28;19921;-64
2022/07/28 02:23:57;;;;;;;;;;;;;;;26.14;37.32;99389.78;2065463;28;19928;-63
2022/07/28 02:24:58;;;;;;;;;;;;;;;26.13;37.33;99378.94;2063346;28;19917;-63
2022/07/28 02:26:00;;;;;;;;;;;;;;;26.14;37.62;99380.63;2068880;28;20964;-63
2022/07/28 02:27:04;;;;;;;;;;;;;;;26.14;37.57;99378.75;2061543;28;20311;-63
2022/07/28 02:28:06;;;;;;;;;;;;;;;26.14;37.42;99384.25;2068127;28;19979;-63
2022/07/28 02:29:09;;;;;;;;;;;;;;;26.13;37.48;99377.03;2074403;28;20307;-63
2022/07/28 02:30:11;;;;;;;;;;;;;;;26.13;37.20;99370.66;2073868;28;20101;-63
2022/07/28 02:31:18;;;;;;;;;;;;;;;26.13;37.43;99378.94;2069516;28;20073;-64
2022/07/28 02:32:22;;;;;;;;;;;;;;;26.14;37.46;99372.34;2065368;28;19919;-63
2022/07/28 02:33:23;;;;;;;;;;;;;;;26.13;37.40;99376.19;2070838;28;19964;-63
2022/07/28 02:34:25;;;;;;;;;;;;;;;26.13;37.42;99381.72;2069155;28;19998;-63
2022/07/28 02:35:47;;;;;;;;;;;;;;;26.13;37.47;99378.94;2070442;28;20476;-63
2022/07/28 02:36:56;;;;;;;;;;;;;;;26.12;37.35;99375.34;2068837;28;20287;-63
2022/07/28 02:37:59;;;;;;;;;;;;;;;26.12;37.37;99374.50;2068597;28;21023;-63
2022/07/28 02:39:06;;;;;;;;;;;;;;;26.12;37.43;99380.03;2066546;28;19910;-64
2022/07/28 02:40:11;;;;;;;;;;;;;;;26.11;37.66;99375.53;2062085;28;19925;-63
2022/07/28 02:41:23;;;;;;;;;;;;;;;26.11;37.62;99384.66;2070196;28;20617;-63
2022/07/28 02:42:27;;;;;;;;;;;;;;;26.09;37.67;99375.75;2067698;28;20467;-63
2022/07/28 02:43:28;;;;;;;;;;;;;;;26.09;37.43;99381.25;2067485;28;19964;-63
2022/07/28 02:44:34;;;;;;;;;;;;;;;26.11;37.67;99375.53;2064840;28;19906;-64
2022/07/28 02:45:36;;;;;;;;;;;;;;;26.11;37.65;99378.31;2064465;28;19920;-63
2022/07/28 02:46:41;;;;;;;;;;;;;;;26.09;37.50;99387.66;2068854;28;20607;-63
2022/07/28 02:47:47;;;;;;;;;;;;;;;26.11;37.34;99378.31;2068082;28;19917;-64
2022/07/28 02:48:51;;;;;;;;;;;;;;;26.09;37.63;99375.75;2066324;28;19963;-63
2022/07/28 02:49:53;;;;;;;;;;;;;;;26.11;37.70;99383.81;2066341;28;20027;-63
2022/07/28 02:50:54;;;;;;;;;;;;;;;26.11;37.43;99389.34;2068840;28;19921;-62
2022/07/28 02:51:55;;;;;;;;;;;;;;;26.11;37.30;99384.66;2062106;28;19929;-63
2022/07/28 02:52:58;;;;;;;;;;;;;;;26.12;37.50;99385.53;2060348;28;20035;-63
2022/07/28 02:53:59;;;;;;;;;;;;;;;26.11;37.41;99389.34;2068428;28;20454;-64
2022/07/28 02:55:01;;;;;;;;;;;;;;;26.11;37.37;99394.88;2065407;28;20441;-64
2022/07/28 02:56:02;;;;;;;;;;;;;;;26.11;37.41;99390.19;2069613;28;19917;-63
2022/07/28 02:57:03;;;;;;;;;;;;;;;26.10;37.65;99394.03;2067099;28;19909;-64
2022/07/28 02:58:04;;;;;;;;;;;;;;;26.12;37.70;99393.81;2065557;28;20311;-63
2022/07/28 02:59:04;;;;;;;;;;;;;;;26.09;37.52;99390.44;2068626;28;20758;-63
2022/07/28 03:00:05;;;;;;;;;;;;;;;26.09;37.45;99395.94;2067480;28;19952;-64
2022/07/28 03:01:05;;;;;;;;;;;;;;;26.09;37.67;99387.66;2069502;28;19928;-63
2022/07/28 03:02:06;;;;;;;;;;;;;;;26.09;37.40;99387.66;2061996;28;20428;-63
2022/07/28 03:03:07;;;;;;;;;;;;;;;26.09;37.73;99389.56;2064562;28;19906;-63
2022/07/28 03:04:08;;;;;;;;;;;;;;;26.09;37.71;99393.19;2061556;28;19944;-63
2022/07/28 03:05:09;;;;;;;;;;;;;;;26.09;37.72;99387.66;2069209;28;19916;-63
2022/07/28 03:06:09;;;;;;;;;;;;;;;26.09;37.67;99395.94;2066064;28;19921;-63
2022/07/28 03:07:10;;;;;;;;;;;;;;;26.09;37.66;99395.94;2068274;28;20454;-64
2022/07/28 03:08:11;;;;;;;;;;;;;;;26.09;37.70;99393.19;2061474;28;19917;-63
2022/07/28 03:09:11;;;;;;;;;;;;;;;26.09;37.58;99397.84;2063104;28;19959;-64
2022/07/28 03:10:19;;;;;;;;;;;;;;;26.09;37.62;99403.34;2061058;28;19992;-63
2022/07/28 03:11:19;;;;;;;;;;;;;;;26.08;37.54;99402.53;2067762;28;20113;-63
2022/07/28 03:12:19;;;;;;;;;;;;;;;26.08;37.80;99398.91;2067481;28;19920;-64
2022/07/28 03:13:20;;;;;;;;;;;;;;;26.08;37.68;99402.53;2067781;28;20326;-64
2022/07/28 03:14:20;;;;;;;;;;;;;;;26.06;37.72;99396.34;2064363;28;19921;-63
2022/07/28 03:15:21;;;;;;;;;;;;;;;26.07;37.53;99400.84;2069270;28;20327;-63
2022/07/28 03:16:21;;;;;;;;;;;;;;;26.07;37.60;99400.84;2065913;28;19924;-63
2022/07/28 03:17:22;;;;;;;;;;;;;;;26.06;37.74;99399.09;2065622;28;20007;-64
2022/07/28 03:18:23;;;;;;;;;;;;;;;26.06;37.79;99401.03;2068393;28;19943;-63
2022/07/28 03:19:24;;;;;;;;;;;;;;;26.06;37.75;99404.63;2066929;28;19924;-65
2022/07/28 03:20:24;;;;;;;;;;;;;;;26.04;37.50;99401.25;2066979;28;19928;-63
2022/07/28 03:21:24;;;;;;;;;;;;;;;26.05;37.61;99400.19;2060522;28;19925;-63
2022/07/28 03:22:25;;;;;;;;;;;;;;;26.06;37.50;99399.09;2066323;28;19929;-63
2022/07/28 03:23:41;;;;;;;;;;;;;;;26.06;37.54;99399.09;2062763;28;19927;-63
2022/07/28 03:24:46;;;;;;;;;;;;;;;26.06;37.60;99398.28;2067659;28;19913;-64
2022/07/28 03:25:49;;;;;;;;;;;;;;;26.05;37.68;99394.66;2064350;28;20398;-63
2022/07/28 03:26:56;;;;;;;;;;;;;;;26.06;37.81;99406.56;2067481;28;20370;-63
2022/07/28 03:27:58;;;;;;;;;;;;;;;26.06;37.57;99404.63;2064164;28;20387;-63
2022/07/28 03:28:59;;;;;;;;;;;;;;;26.06;37.76;99407.41;2066120;28;19966;-63
2022/07/28 03:30:04;;;;;;;;;;;;;;;26.05;37.76;99397.44;2067745;28;19931;-63
2022/07/28 03:31:07;;;;;;;;;;;;;;;26.06;37.81;99404.63;2067066;28;19917;-64
2022/07/28 03:32:08;;;;;;;;;;;;;;;26.05;37.79;99402.09;2067578;28;19917;-63
2022/07/28 03:33:09;;;;;;;;;;;;;;;26.06;37.45;99398.28;2060129;28;19913;-63
2022/07/28 03:34:10;;;;;;;;;;;;;;;26.05;37.58;99396.59;2064269;28;19963;-63
2022/07/28 03:35:11;;;;;;;;;;;;;;;26.05;37.44;99402.94;2067508;28;19923;-63
2022/07/28 03:36:14;;;;;;;;;;;;;;;26.05;37.59;99400.19;2066129;28;19924;-63
2022/07/28 03:37:17;;;;;;;;;;;;;;;26.05;37.64;99405.72;2068185;28;19928;-63
2022/07/28 03:38:19;;;;;;;;;;;;;;;26.05;37.57;99402.94;2066425;28;19909;-63
2022/07/28 03:39:21;;;;;;;;;;;;;;;26.05;37.66;99407.63;2061274;28;19913;-63
2022/07/28 03:40:25;;;;;;;;;;;;;;;26.05;37.83;99404.88;2063402;28;19917;-63
2022/07/28 03:41:26;;;;;;;;;;;;;;;26.04;37.61;99403.16;2066792;28;19921;-63
2022/07/28 03:42:27;;;;;;;;;;;;;;;26.04;37.86;99398.50;2061534;28;19960;-63
2022/07/28 03:43:27;;;;;;;;;;;;;;;26.04;37.67;99404.03;2067274;28;19968;-64
2022/07/28 03:44:28;;;;;;;;;;;;;;;26.05;37.77;99405.72;2065046;28;20099;-63
2022/07/28 03:45:29;;;;;;;;;;;;;;;26.05;37.69;99402.09;2065870;28;19917;-63
2022/07/28 03:46:30;;;;;;;;;;;;;;;26.04;37.84;99405.91;2065536;28;20812;-64
2022/07/28 03:47:30;;;;;;;;;;;;;;;26.04;37.74;99405.91;2066258;28;19956;-63
2022/07/28 03:48:31;;;;;;;;;;;;;;;26.03;37.70;99399.53;2067438;28;20198;-63
2022/07/28 03:49:31;;;;;;;;;;;;;;;26.03;37.81;99405.06;2066980;28;20762;-63
2022/07/28 03:50:32;;;;;;;;;;;;;;;26.03;37.75;99405.06;2064803;28;20004;-63
2022/07/28 03:51:32;;;;;;;;;;;;;;;26.03;37.63;99398.69;2067737;28;19978;-63
2022/07/28 03:52:32;;;;;;;;;;;;;;;26.02;37.73;99402.53;2069101;28;19917;-63
2022/07/28 03:53:33;;;;;;;;;;;;;;;26.02;37.63;99399.78;2069989;28;19916;-63
2022/07/28 03:54:33;;;;;;;;;;;;;;;26.02;37.59;99402.53;2067910;28;20012;-63
2022/07/28 03:55:33;;;;;;;;;;;;;;;26.01;37.82;99409.94;2067959;28;20330;-63
2022/07/28 03:56:34;;;;;;;;;;;;;;;26.00;37.69;99402.75;2063808;28;19910;-63
2022/07/28 03:57:34;;;;;;;;;;;;;;;26.01;37.68;99406.34;2067409;28;19921;-63
2022/07/28 03:58:34;;;;;;;;;;;;;;;26.01;37.79;99396.13;2067308;28;20641;-63
2022/07/28 03:59:35;;;;;;;;;;;;;;;26.00;37.70;99399.13;2066721;28;19996;-63
2022/07/28 04:00:35;;;;;;;;;;;;;;;26.00;37.94;99399.13;2066260;28;19917;-63
2022/07/28 04:01:35;;;;;;;;;;;;;;;26.00;37.63;99405.50;2068229;28;20017;-63
2022/07/28 04:02:36;;;;;;;;;;;;;;;26.01;37.78;99396.13;2069672;28;19921;-63
2022/07/28 04:03:36;;;;;;;;;;;;;;;26.01;37.93;99404.44;2067846;28;19921;-64
2022/07/28 04:04:36;;;;;;;;;;;;;;;26.00;37.67;99405.50;2066717;28;20005;-63
2022/07/28 04:05:37;;;;;;;;;;;;;;;26.01;37.69;99407.19;2066757;28;19917;-63
2022/07/28 04:06:37;;;;;;;;;;;;;;;26.01;37.71;99409.94;2068585;28;19923;-64
2022/07/28 04:07:39;;;;;;;;;;;;;;;26.01;37.68;99407.19;2066396;28;19967;-64
2022/07/28 04:08:39;;;;;;;;;;;;;;;26.02;37.95;99413.59;2064949;28;20886;-63
2022/07/28 04:09:40;;;;;;;;;;;;;;;26.01;37.88;99412.72;2065962;28;19995;-63
2022/07/28 04:10:40;;;;;;;;;;;;;;;26.01;37.70;99412.72;2068345;28;21109;-63
2022/07/28 04:11:41;;;;;;;;;;;;;;;26.01;37.81;99412.72;2074510;28;19923;-64
2022/07/28 04:12:44;;;;;;;;;;;;;;;26.01;37.81;99415.47;2068139;28;20482;-64
2022/07/28 04:13:44;;;;;;;;;;;;;;;26.00;37.76;99405.50;2070956;28;19998;-63
2022/07/28 04:14:45;;;;;;;;;;;;;;;26.01;37.76;99411.88;2060386;28;19968;-63
2022/07/28 04:15:45;;;;;;;;;;;;;;;26.01;37.72;99423.75;2064452;28;19934;-63
2022/07/28 04:16:45;;;;;;;;;;;;;;;26.00;37.68;99416.53;2066343;28;19920;-63
2022/07/28 04:17:47;;;;;;;;;;;;;;;26.00;37.84;99416.53;2064094;28;19917;-63
2022/07/28 04:18:47;;;;;;;;;;;;;;;26.00;37.78;99429.50;2068186;28;20008;-62
2022/07/28 04:19:48;;;;;;;;;;;;;;;26.00;37.86;99422.06;2062239;28;19924;-63
2022/07/28 04:20:48;;;;;;;;;;;;;;;26.00;37.99;99427.59;2066608;28;20319;-63
2022/07/28 04:21:48;;;;;;;;;;;;;;;26.01;37.92;99422.91;2066261;28;19928;-63
2022/07/28 04:22:49;;;;;;;;;;;;;;;26.00;37.98;99421.22;2067127;28;19932;-63
2022/07/28 04:23:49;;;;;;;;;;;;;;;25.99;37.84;99420.38;2064133;28;19917;-63
2022/07/28 04:24:49;;;;;;;;;;;;;;;25.99;37.83;99425.91;2065388;28;19999;-63
2022/07/28 04:25:50;;;;;;;;;;;;;;;26.00;37.84;99415.72;2066134;28;19913;-64
2022/07/28 04:26:50;;;;;;;;;;;;;;;26.00;38.07;99426.75;2057501;28;19929;-63
2022/07/28 04:27:51;;;;;;;;;;;;;;;25.99;37.99;99431.44;2066321;28;19917;-63
2022/07/28 04:28:51;;;;;;;;;;;;;;;25.98;37.92;99426.94;2067175;28;20375;-63
2022/07/28 04:29:51;;;;;;;;;;;;;;;25.98;38.05;99435.22;2061774;28;19909;-63
2022/07/28 04:30:52;;;;;;;;;;;;;;;25.98;38.14;99423.34;2063716;28;20333;-64
2022/07/28 04:31:52;;;;;;;;;;;;;;;25.98;37.91;99435.22;2066345;28;20470;-63
2022/07/28 04:32:53;;;;;;;;;;;;;;;25.97;37.95;99424.38;2064070;28;19917;-63
2022/07/28 04:33:53;;;;;;;;;;;;;;;25.97;38.00;99422.50;2064100;28;20380;-63
2022/07/28 04:34:53;;;;;;;;;;;;;;;25.96;37.93;99426.31;2068717;28;19917;-63
2022/07/28 04:35:54;;;;;;;;;;;;;;;25.96;38.01;99428.22;2067844;28;19924;-62
2022/07/28 04:36:55;;;;;;;;;;;;;;;25.96;38.13;99431.81;2068982;28;19921;-63
2022/07/28 04:37:57;;;;;;;;;;;;;;;25.96;38.21;99431.81;2069263;28;19963;-63
2022/07/28 04:38:58;;;;;;;;;;;;;;;25.96;38.28;99430.97;2069292;28;20253;-63
2022/07/28 04:39:58;;;;;;;;;;;;;;;25.95;38.29;99430.13;2068199;28;19983;-63
2022/07/28 04:40:59;;;;;;;;;;;;;;;25.95;38.01;99434.81;2067601;28;20350;-63
2022/07/28 04:41:59;;;;;;;;;;;;;;;25.96;38.03;99430.97;2062064;28;19921;-63
2022/07/28 04:42:59;;;;;;;;;;;;;;;25.96;38.21;99437.34;2068569;28;19924;-63
2022/07/28 04:44:00;;;;;;;;;;;;;;;25.96;38.31;99431.81;2063647;28;19918;-62
2022/07/28 04:45:00;;;;;;;;;;;;;;;25.97;37.99;99432.66;2066260;28;19971;-63
2022/07/28 04:46:00;;;;;;;;;;;;;;;25.94;38.25;99433.94;2068322;28;19916;-63
2022/07/28 04:47:00;;;;;;;;;;;;;;;25.96;38.14;99434.59;2063740;28;20489;-62
2022/07/28 04:48:01;;;;;;;;;;;;;;;25.97;38.03;99433.53;2072013;28;19921;-63
2022/07/28 04:49:02;;;;;;;;;;;;;;;25.96;38.13;99442.88;2067121;28;19963;-63
2022/07/28 04:50:03;;;;;;;;;;;;;;;25.96;38.06;99445.63;2066086;28;20284;-63
2022/07/28 04:51:04;;;;;;;;;;;;;;;25.97;38.10;99438.19;2070964;28;19951;-63
2022/07/28 04:52:05;;;;;;;;;;;;;;;25.95;38.18;99441.19;2064205;28;20011;-63
2022/07/28 04:53:05;;;;;;;;;;;;;;;25.97;38.20;99440.94;2071479;28;19925;-63
2022/07/28 04:54:05;;;;;;;;;;;;;;;25.95;38.14;99446.72;2060261;28;19944;-63
2022/07/28 04:55:06;;;;;;;;;;;;;;;25.96;38.22;99442.03;2065321;28;20194;-63
2022/07/28 04:56:07;;;;;;;;;;;;;;;25.95;38.20;99443.94;2067781;28;20992;-63
2022/07/28 04:57:09;;;;;;;;;;;;;;;25.96;38.30;99442.88;2066137;28;20683;-63
2022/07/28 04:58:11;;;;;;;;;;;;;;;25.95;38.35;99445.88;2066062;28;19913;-63
2022/07/28 04:59:11;;;;;;;;;;;;;;;25.96;38.42;99453.91;2068118;28;19965;-63
2022/07/28 05:00:12;;;;;;;;;;;;;;;25.97;38.16;99460.28;2066224;28;19917;-63
2022/07/28 05:01:13;;;;;;;;;;;;;;;25.95;38.23;99460.50;2067948;28;19917;-63
2022/07/28 05:02:13;;;;;;;;;;;;;;;25.96;38.20;99459.44;2062905;28;20384;-63
2022/07/28 05:03:13;;;;;;;;;;;;;;;25.95;38.22;99466.03;2065706;28;19996;-63
2022/07/28 05:04:14;;;;;;;;;;;;;;;25.95;38.33;99463.28;2062265;28;19921;-63
2022/07/28 05:05:15;;;;;;;;;;;;;;;25.96;38.37;99470.47;2060204;28;19984;-63
2022/07/28 05:06:17;;;;;;;;;;;;;;;25.96;38.39;99464.97;2067691;28;19925;-63
2022/07/28 05:07:17;;;;;;;;;;;;;;;25.95;38.44;99466.03;2069591;28;19928;-62
2022/07/28 05:08:18;;;;;;;;;;;;;;;25.95;38.53;99460.50;2062857;28;19917;-63
2022/07/28 05:09:18;;;;;;;;;;;;;;;25.95;38.50;99463.28;2063994;28;19917;-63
2022/07/28 05:10:18;;;;;;;;;;;;;;;25.95;38.38;99463.28;2069857;28;19913;-63
2022/07/28 05:11:19;;;;;;;;;;;;;;;25.95;38.52;99463.28;2069613;28;20415;-63
2022/07/28 05:12:19;;;;;;;;;;;;;;;25.94;38.59;99464.31;2067529;28;19925;-63
2022/07/28 05:13:19;;;;;;;;;;;;;;;25.94;38.42;99467.06;2062275;28;20602;-63
2022/07/28 05:14:19;;;;;;;;;;;;;;;25.95;38.43;99467.94;2068127;28;19917;-63
2022/07/28 05:15:20;;;;;;;;;;;;;;;25.93;38.39;99462.63;2068088;28;19960;-63
2022/07/28 05:16:20;;;;;;;;;;;;;;;25.93;38.52;99462.63;2061247;28;19928;-63
2022/07/28 05:17:20;;;;;;;;;;;;;;;25.94;38.42;99467.06;2066319;28;19929;-63
2022/07/28 05:18:21;;;;;;;;;;;;;;;25.93;38.48;99468.16;2067691;28;20402;-63
2022/07/28 05:19:21;;;;;;;;;;;;;;;25.93;38.54;99462.63;2062843;28;20759;-63
2022/07/28 05:20:21;;;;;;;;;;;;;;;25.95;38.47;99459.66;2063973;28;21012;-63
2022/07/28 05:21:22;;;;;;;;;;;;;;;25.92;38.70;99458.19;2065384;28;20194;-63
2022/07/28 05:22:22;;;;;;;;;;;;;;;25.94;38.44;99463.47;2064761;28;20259;-63
2022/07/28 05:23:22;;;;;;;;;;;;;;;25.94;38.44;99467.06;2064773;28;19955;-63
2022/07/28 05:24:22;;;;;;;;;;;;;;;25.94;38.68;99460.72;2064807;28;20062;-63